createdAt,value
2018-12-17T00:01:32.056Z,31.30
2018-12-17T00:03:59.556Z,30.97
2018-12-17T00:06:27.122Z,30.90
2018-12-17T00:08:54.676Z,30.07
2018-12-17T00:11:22.413Z,30.40
2018-12-17T00:13:49.933Z,30.45
2018-12-17T00:16:17.428Z,30.00
2018-12-17T00:18:44.925Z,30.75
2018-12-17T00:21:12.664Z,30.02
2018-12-17T00:23:40.190Z,30.60
2018-12-17T00:26:07.682Z,30.60
2018-12-17T00:28:35.141Z,31.13
2018-12-17T00:31:02.600Z,30.20
2018-12-17T00:33:30.071Z,32.10
2018-12-17T00:35:57.680Z,31.48
2018-12-17T00:38:25.248Z,31.12
2018-12-17T00:40:52.711Z,30.10
2018-12-17T00:43:20.344Z,31.07
2018-12-17T00:45:47.829Z,32.98
2018-12-17T00:48:15.255Z,30.57
2018-12-17T00:50:42.796Z,31.00
2018-12-17T00:53:10.265Z,28.63
2018-12-17T00:55:37.724Z,31.07
2018-12-17T00:58:05.219Z,30.55
2018-12-17T01:00:32.660Z,30.00
2018-12-17T01:03:00.129Z,29.15
2018-12-17T01:05:27.583Z,29.63
2018-12-17T01:07:55.063Z,29.12
2018-12-17T01:10:22.558Z,28.38
2018-12-17T01:12:50.056Z,28.90
2018-12-17T01:15:17.580Z,29.37
2018-12-17T01:17:45.053Z,31.10
2018-12-17T01:20:12.584Z,28.70
2018-12-17T01:22:40.068Z,29.92
2018-12-17T01:25:07.549Z,29.37
2018-12-17T01:27:35.022Z,29.20
2018-12-17T01:30:02.576Z,28.50
2018-12-17T01:32:30.260Z,27.22
2018-12-17T01:34:57.723Z,29.80
2018-12-17T01:37:25.204Z,29.20
2018-12-17T01:39:52.710Z,28.05
2018-12-17T01:42:20.373Z,27.60
2018-12-17T01:44:47.863Z,29.45
2018-12-17T01:47:15.320Z,29.15
2018-12-17T01:49:42.846Z,30.08
2018-12-17T01:52:10.402Z,29.45
2018-12-17T01:54:37.911Z,29.77
2018-12-17T01:57:05.381Z,28.53
2018-12-17T01:59:32.838Z,28.10
2018-12-17T02:02:00.319Z,27.62
2018-12-17T02:04:27.887Z,28.90
2018-12-17T02:06:55.427Z,29.10
2018-12-17T02:09:22.944Z,28.70
2018-12-17T02:11:50.446Z,28.10
2018-12-17T02:14:17.916Z,27.50
2018-12-17T02:16:45.451Z,27.65
2018-12-17T02:19:12.903Z,27.37
2018-12-17T02:21:40.400Z,26.83
2018-12-17T02:24:07.852Z,26.40
2018-12-17T02:26:35.376Z,27.52
2018-12-17T02:29:03.765Z,26.95
2018-12-17T02:31:31.246Z,27.27
2018-12-17T02:33:58.761Z,26.53
2018-12-17T02:36:26.283Z,26.57
2018-12-17T02:38:53.745Z,28.17
2018-12-17T02:41:21.217Z,28.87
2018-12-17T02:43:48.797Z,29.30
2018-12-17T02:46:16.265Z,29.25
2018-12-17T02:48:43.747Z,31.15
2018-12-17T02:51:11.212Z,29.45
2018-12-17T02:53:38.689Z,29.85
2018-12-17T02:56:06.189Z,30.23
2018-12-17T02:58:33.745Z,30.30
2018-12-17T03:01:01.234Z,30.20
2018-12-17T03:03:28.768Z,30.08
2018-12-17T03:05:56.210Z,31.80
2018-12-17T03:08:23.713Z,31.45
2018-12-17T03:10:51.193Z,32.50
2018-12-17T03:13:18.663Z,29.40
2018-12-17T03:15:46.212Z,29.70
2018-12-17T03:18:13.687Z,29.70
2018-12-17T03:20:41.177Z,30.88
2018-12-17T03:23:08.689Z,30.82
2018-12-17T03:25:36.144Z,31.02
2018-12-17T03:28:03.804Z,31.45
2018-12-17T03:30:31.358Z,29.45
2018-12-17T03:32:58.813Z,29.92
2018-12-17T03:35:26.366Z,31.52
2018-12-17T03:37:53.989Z,30.72
2018-12-17T03:40:21.604Z,32.95
2018-12-17T03:42:49.091Z,32.33
2018-12-17T03:45:16.569Z,32.25
2018-12-17T03:47:44.073Z,32.40
2018-12-17T03:50:11.728Z,30.52
2018-12-17T03:52:39.355Z,31.55
2018-12-17T03:55:06.930Z,32.25
2018-12-17T03:57:34.419Z,32.95
2018-12-17T04:00:01.961Z,30.62
2018-12-17T04:02:29.540Z,31.10
2018-12-17T04:04:57.083Z,30.82
2018-12-17T04:07:24.611Z,31.37
2018-12-17T04:09:52.227Z,33.05
2018-12-17T04:12:19.675Z,31.90
2018-12-17T04:14:47.118Z,30.77
2018-12-17T04:17:14.611Z,32.10
2018-12-17T04:19:42.098Z,32.23
2018-12-17T04:22:09.561Z,30.20
2018-12-17T04:24:37.132Z,30.12
2018-12-17T04:27:04.617Z,31.75
2018-12-17T04:29:32.060Z,31.42
2018-12-17T04:31:59.529Z,29.73
2018-12-17T04:34:26.998Z,28.60
2018-12-17T04:36:54.453Z,30.85
2018-12-17T04:39:21.898Z,27.60
2018-12-17T04:41:49.363Z,29.60
2018-12-17T04:44:16.821Z,26.23
2018-12-17T04:46:44.305Z,28.95
2018-12-17T04:49:11.903Z,27.15
2018-12-17T04:51:39.384Z,26.60
2018-12-17T04:54:06.992Z,23.40
2018-12-17T04:56:34.485Z,23.83
2018-12-17T04:59:02.025Z,23.10
2018-12-17T05:01:29.585Z,24.23
2018-12-17T05:03:57.016Z,23.00
2018-12-17T05:06:24.493Z,24.02
2018-12-17T05:08:51.956Z,22.60
2018-12-17T05:11:19.420Z,23.70
2018-12-17T05:13:47.067Z,23.95
2018-12-17T05:16:14.533Z,22.87
2018-12-17T05:18:42.007Z,23.02
2018-12-17T05:21:09.490Z,23.18
2018-12-17T05:23:36.947Z,22.87
2018-12-17T05:26:04.447Z,24.50
2018-12-17T05:28:31.898Z,25.15
2018-12-17T05:30:59.356Z,24.98
2018-12-17T05:33:27.223Z,24.02
2018-12-17T05:35:55.147Z,25.50
2018-12-17T05:38:22.601Z,24.60
2018-12-17T05:40:50.540Z,24.87
2018-12-17T05:43:17.970Z,25.25
2018-12-17T05:45:45.455Z,24.52
2018-12-17T05:48:12.903Z,24.03
2018-12-17T05:50:40.357Z,21.82
2018-12-17T05:53:07.810Z,22.67
2018-12-17T05:55:35.419Z,22.55
2018-12-17T05:58:02.893Z,22.80
2018-12-17T06:00:30.393Z,20.40
2018-12-17T06:02:57.881Z,24.57
2018-12-17T06:05:25.339Z,20.85
2018-12-17T06:07:52.836Z,21.30
2018-12-17T06:10:20.356Z,23.45
2018-12-17T06:12:47.809Z,22.13
2018-12-17T06:15:15.354Z,22.00
2018-12-17T06:17:42.881Z,23.98
2018-12-17T06:20:10.320Z,23.77
2018-12-17T06:22:37.885Z,24.90
2018-12-17T06:25:05.491Z,25.17
2018-12-17T06:27:36.776Z,25.00
2018-12-17T06:30:04.490Z,23.87
2018-12-17T06:32:31.952Z,25.52
2018-12-17T06:34:59.405Z,25.92
2018-12-17T06:37:26.896Z,24.45
2018-12-17T06:39:54.355Z,22.10
2018-12-17T06:42:21.868Z,21.87
2018-12-17T06:44:49.309Z,19.75
2018-12-17T06:47:16.789Z,21.50
2018-12-17T06:49:44.240Z,19.48
2018-12-17T06:52:11.730Z,17.98
2018-12-17T06:54:39.170Z,20.30
2018-12-17T06:57:06.657Z,18.95
2018-12-17T06:59:34.106Z,17.60
2018-12-17T07:02:01.853Z,17.40
2018-12-17T07:04:29.329Z,18.00
2018-12-17T07:06:56.778Z,17.17
2018-12-17T07:09:24.284Z,18.20
2018-12-17T07:11:51.744Z,19.12
2018-12-17T07:14:19.221Z,19.90
2018-12-17T07:16:46.668Z,18.82
2018-12-17T07:19:14.142Z,18.23
2018-12-17T07:21:41.644Z,18.53
2018-12-17T07:24:09.168Z,17.82
2018-12-17T07:26:36.639Z,19.87
2018-12-17T07:29:04.187Z,20.20
2018-12-17T07:31:31.646Z,20.40
2018-12-17T07:33:59.102Z,18.30
2018-12-17T07:36:26.554Z,18.70
2018-12-17T07:38:54.013Z,19.20
2018-12-17T07:41:21.516Z,20.02
2018-12-17T07:43:49.011Z,19.27
2018-12-17T07:46:16.448Z,19.60
2018-12-17T07:48:43.937Z,19.60
2018-12-17T07:51:11.447Z,18.02
2018-12-17T07:53:38.899Z,18.32
2018-12-17T07:56:06.421Z,20.50
2018-12-17T07:58:33.872Z,19.83
2018-12-17T08:01:01.339Z,19.30
2018-12-17T08:03:28.853Z,19.77
2018-12-17T08:05:56.330Z,21.57
2018-12-17T08:08:23.780Z,19.75
2018-12-17T08:10:52.224Z,20.90
2018-12-17T08:13:20.206Z,20.72
2018-12-17T08:15:47.681Z,20.20
2018-12-17T08:18:22.624Z,19.05
2018-12-17T08:20:50.872Z,17.87
2018-12-17T08:23:18.393Z,16.62
2018-12-17T08:25:45.994Z,16.97
2018-12-17T08:28:13.436Z,17.30
2018-12-17T08:30:40.933Z,16.95
2018-12-17T08:33:08.368Z,18.27
2018-12-17T08:35:35.881Z,18.70
2018-12-17T08:38:03.318Z,19.52
2018-12-17T08:40:30.860Z,20.68
2018-12-17T08:42:58.323Z,19.00
2018-12-17T08:45:25.789Z,19.92
2018-12-17T08:47:53.341Z,18.70
2018-12-17T08:50:20.801Z,19.52
2018-12-17T08:52:48.314Z,19.27
2018-12-17T08:55:15.817Z,18.30
2018-12-17T08:57:43.278Z,18.90
2018-12-17T09:00:11.429Z,17.97
2018-12-17T09:02:39.088Z,18.12
2018-12-17T09:05:06.694Z,16.62
2018-12-17T09:07:34.171Z,17.25
2018-12-17T09:10:01.626Z,16.48
2018-12-17T09:12:29.163Z,16.37
2018-12-17T09:14:56.636Z,15.78
2018-12-17T09:17:24.099Z,16.05
2018-12-17T09:19:51.572Z,16.85
2018-12-17T09:22:19.144Z,15.90
2018-12-17T09:24:46.635Z,15.47
2018-12-17T09:27:14.286Z,14.38
2018-12-17T09:29:41.759Z,14.58
2018-12-17T09:32:09.287Z,14.30
2018-12-17T09:34:36.829Z,14.68
2018-12-17T09:37:04.293Z,14.58
2018-12-17T09:39:31.777Z,14.30
2018-12-17T09:41:59.250Z,15.30
2018-12-17T09:44:26.722Z,13.60
2018-12-17T09:46:54.201Z,13.95
2018-12-17T09:49:21.725Z,15.03
2018-12-17T09:51:49.213Z,13.70
2018-12-17T09:54:16.750Z,13.75
2018-12-17T09:56:44.250Z,14.58
2018-12-17T09:59:11.750Z,14.33
2018-12-17T10:01:39.269Z,14.80
2018-12-17T10:04:06.913Z,14.55
2018-12-17T10:06:34.399Z,13.22
2018-12-17T10:09:01.922Z,13.78
2018-12-17T10:11:29.384Z,14.00
2018-12-17T10:13:56.880Z,14.20
2018-12-17T10:16:24.399Z,13.70
2018-12-17T10:18:51.884Z,14.00
2018-12-17T10:21:19.469Z,14.58
2018-12-17T10:23:47.258Z,14.03
2018-12-17T10:26:15.924Z,14.10
2018-12-17T10:28:43.381Z,13.27
2018-12-17T10:31:10.914Z,13.32
2018-12-17T10:33:38.455Z,14.25
2018-12-17T10:36:06.022Z,14.68
2018-12-17T10:38:33.496Z,13.28
2018-12-17T10:41:00.974Z,14.10
2018-12-17T10:43:28.508Z,12.70
2018-12-17T10:45:56.069Z,13.45
2018-12-17T10:48:23.513Z,12.80
2018-12-17T10:50:51.098Z,12.55
2018-12-17T10:53:18.559Z,12.10
2018-12-17T10:55:46.096Z,13.00
2018-12-17T10:58:13.600Z,13.22
2018-12-17T11:00:46.971Z,12.40
2018-12-17T11:03:15.260Z,13.23
2018-12-17T11:05:43.224Z,14.28
2018-12-17T11:08:10.789Z,13.80
2018-12-17T11:10:38.321Z,13.75
2018-12-17T11:13:05.885Z,13.43
2018-12-17T11:15:33.372Z,14.68
2018-12-17T11:18:00.872Z,14.40
2018-12-17T11:20:29.191Z,13.70
2018-12-17T11:22:56.784Z,13.80
2018-12-17T11:25:24.291Z,12.35
2018-12-17T11:27:51.781Z,12.63
2018-12-17T11:30:19.281Z,13.13
2018-12-17T11:32:46.761Z,13.00
2018-12-17T11:35:14.284Z,12.47
2018-12-17T11:37:41.763Z,12.00
2018-12-17T11:40:09.333Z,11.75
2018-12-17T11:42:36.831Z,12.40
2018-12-17T11:45:04.404Z,13.03
2018-12-17T11:47:31.939Z,13.40
2018-12-17T11:49:59.440Z,13.27
2018-12-17T11:52:26.997Z,12.82
2018-12-17T11:54:54.467Z,12.18
2018-12-17T11:57:38.456Z,12.33
2018-12-17T12:00:07.857Z,12.50
2018-12-17T12:02:35.330Z,12.30
2018-12-17T12:05:02.826Z,13.32
2018-12-17T12:07:30.527Z,11.85
2018-12-17T12:09:58.011Z,12.25
2018-12-17T12:12:25.485Z,11.43
2018-12-17T12:14:52.975Z,12.50
2018-12-17T12:17:20.441Z,12.43
2018-12-17T12:19:47.920Z,13.10
2018-12-17T12:22:15.364Z,12.25
2018-12-17T12:24:42.834Z,13.30
2018-12-17T12:27:10.308Z,12.57
2018-12-17T12:29:37.776Z,12.60
2018-12-17T12:32:05.243Z,12.15
2018-12-17T12:34:32.739Z,13.30
2018-12-17T12:37:00.202Z,13.90
2018-12-17T12:39:27.737Z,13.03
2018-12-17T12:41:55.293Z,13.08
2018-12-17T12:44:22.797Z,13.25
2018-12-17T12:46:50.272Z,12.63
2018-12-17T12:49:17.793Z,13.00
2018-12-17T12:51:45.263Z,13.03
2018-12-17T12:54:12.742Z,12.80
2018-12-17T12:56:40.244Z,14.18
2018-12-17T12:59:07.708Z,13.35
2018-12-17T13:01:35.259Z,14.10
2018-12-17T13:04:02.803Z,14.35
2018-12-17T13:06:30.298Z,14.95
2018-12-17T13:08:57.783Z,14.28
2018-12-17T13:11:25.265Z,14.80
2018-12-17T13:13:52.739Z,15.20
2018-12-17T13:16:20.187Z,13.70
2018-12-17T13:18:47.682Z,13.90
2018-12-17T13:21:15.159Z,14.30
2018-12-17T13:23:42.605Z,14.10
2018-12-17T13:26:10.167Z,14.00
2018-12-17T13:28:37.676Z,14.40
2018-12-17T13:31:05.241Z,15.38
2018-12-17T13:33:32.745Z,14.60
2018-12-17T13:36:00.231Z,14.55
2018-12-17T13:38:27.707Z,14.20
2018-12-17T13:40:55.186Z,13.48
2018-12-17T13:43:22.670Z,14.00
2018-12-17T13:45:50.166Z,14.75
2018-12-17T13:48:17.653Z,14.70
2018-12-17T13:50:45.140Z,13.50
2018-12-17T13:53:18.383Z,14.30
2018-12-17T13:55:45.864Z,14.98
2018-12-17T13:58:13.355Z,13.72
2018-12-17T14:00:40.820Z,14.75
2018-12-17T14:03:08.323Z,14.78
2018-12-17T14:05:35.813Z,13.35
2018-12-17T14:08:03.265Z,14.47
2018-12-17T14:10:36.446Z,14.38
2018-12-17T14:13:03.950Z,14.58
2018-12-17T14:15:37.253Z,15.30
2018-12-17T14:18:06.688Z,15.60
2018-12-17T14:20:39.921Z,14.80
2018-12-17T14:23:07.374Z,15.78
2018-12-17T14:25:35.395Z,15.80
2018-12-17T14:28:02.866Z,14.45
2018-12-17T14:30:30.386Z,15.80
2018-12-17T14:32:57.896Z,16.65
2018-12-17T14:35:25.457Z,15.37
2018-12-17T14:38:08.734Z,16.02
2018-12-17T14:40:36.206Z,15.18
2018-12-17T14:43:03.649Z,14.38
2018-12-17T14:45:31.123Z,15.03
2018-12-17T14:47:58.583Z,15.45
2018-12-17T14:50:26.068Z,16.25
2018-12-17T14:52:53.531Z,16.05
2018-12-17T14:55:21.018Z,15.78
2018-12-17T14:57:48.555Z,15.90
2018-12-17T15:00:16.049Z,17.80
2018-12-17T15:02:43.488Z,18.82
2018-12-17T15:05:10.945Z,19.77
2018-12-17T15:07:38.539Z,18.15
2018-12-17T15:10:06.720Z,17.67
2018-12-17T15:12:34.187Z,17.98
2018-12-17T15:15:01.660Z,15.75
2018-12-17T15:17:29.132Z,16.55
2018-12-17T15:19:56.677Z,14.23
2018-12-17T15:22:24.174Z,15.00
2018-12-17T15:24:51.602Z,13.00
2018-12-17T15:27:19.107Z,14.75
2018-12-17T15:29:46.667Z,14.70
2018-12-17T15:32:14.123Z,14.87
2018-12-17T15:34:41.587Z,15.25
2018-12-17T15:37:09.032Z,13.75
2018-12-17T15:39:36.490Z,15.95
2018-12-17T15:42:04.044Z,16.00
2018-12-17T15:44:32.350Z,15.40
2018-12-17T15:46:59.843Z,14.78
2018-12-17T15:49:27.310Z,16.47
2018-12-17T15:51:54.844Z,15.98
2018-12-17T15:54:22.396Z,15.72
2018-12-17T15:56:49.867Z,16.32
2018-12-17T15:59:17.613Z,15.53
2018-12-17T16:01:50.044Z,17.55
2018-12-17T16:04:15.132Z,18.05
2018-12-17T16:06:42.652Z,20.65
2018-12-17T16:09:10.122Z,17.17
2018-12-17T16:11:37.594Z,15.08
2018-12-17T16:14:05.128Z,14.28
2018-12-17T16:16:32.669Z,25.82
2018-12-17T16:19:00.151Z,18.87
2018-12-17T16:21:27.622Z,36.85
2018-12-17T16:23:55.410Z,36.42
2018-12-17T16:26:22.914Z,25.85
2018-12-17T16:28:50.517Z,19.60
2018-12-17T16:31:17.974Z,9.15
2018-12-17T16:33:45.416Z,9.83
2018-12-17T16:36:12.901Z,10.80
2018-12-17T16:38:40.403Z,10.88
2018-12-17T16:41:07.881Z,7.35
2018-12-17T16:43:35.338Z,7.30
2018-12-17T16:46:03.700Z,9.28
2018-12-17T16:48:31.445Z,5.83
2018-12-17T16:50:58.931Z,4.58
2018-12-17T16:53:26.350Z,3.70
2018-12-17T16:55:53.883Z,4.90
2018-12-17T16:58:21.333Z,3.92
2018-12-17T17:00:48.797Z,3.98
2018-12-17T17:03:16.782Z,4.42
2018-12-17T17:05:44.276Z,3.72
2018-12-17T17:08:11.742Z,3.30
2018-12-17T17:10:39.279Z,3.77
2018-12-17T17:13:06.748Z,3.90
2018-12-17T17:15:34.373Z,4.28
2018-12-17T17:18:01.870Z,4.00
2018-12-17T17:20:29.332Z,4.78
2018-12-17T17:22:56.862Z,5.83
2018-12-17T17:25:24.353Z,4.30
2018-12-17T17:27:51.807Z,3.80
2018-12-17T17:30:19.272Z,4.83
2018-12-17T17:32:46.778Z,4.47
2018-12-17T17:35:15.086Z,4.92
2018-12-17T17:37:42.727Z,4.10
2018-12-17T17:40:10.285Z,3.40
2018-12-17T17:42:37.758Z,4.35
2018-12-17T17:45:05.459Z,5.00
2018-12-17T17:47:33.089Z,7.08
2018-12-17T17:50:00.583Z,6.08
2018-12-17T17:52:28.122Z,6.90
2018-12-17T17:54:55.702Z,5.73
2018-12-17T17:57:23.165Z,6.58
2018-12-17T17:59:50.639Z,5.40
2018-12-17T18:02:18.939Z,4.50
2018-12-17T18:04:46.720Z,5.30
2018-12-17T18:07:14.178Z,8.30
2018-12-17T18:09:41.660Z,6.08
2018-12-17T18:12:09.093Z,5.00
2018-12-17T18:14:36.866Z,4.65
2018-12-17T18:17:04.362Z,3.75
2018-12-17T18:19:31.861Z,3.47
2018-12-17T18:21:59.336Z,3.80
2018-12-17T18:24:26.838Z,4.15
2018-12-17T18:26:54.301Z,3.67
2018-12-17T18:29:21.740Z,3.40
2018-12-17T18:31:49.220Z,4.60
2018-12-17T18:34:16.663Z,5.10
2018-12-17T18:36:44.136Z,3.80
2018-12-17T18:39:11.857Z,3.98
2018-12-17T18:41:39.469Z,4.55
2018-12-17T18:44:06.926Z,3.60
2018-12-17T18:46:34.414Z,4.80
2018-12-17T18:49:01.980Z,4.95
2018-12-17T18:51:29.447Z,7.53
2018-12-17T18:53:56.904Z,5.40
2018-12-17T18:56:24.608Z,4.03
2018-12-17T18:58:52.238Z,3.90
2018-12-17T19:01:19.722Z,6.70
2018-12-17T19:03:47.217Z,4.37
2018-12-17T19:06:14.684Z,5.60
2018-12-17T19:08:42.164Z,5.33
2018-12-17T19:11:09.700Z,6.40
2018-12-17T19:13:37.297Z,4.30
2018-12-17T19:16:04.758Z,5.50
2018-12-17T19:18:32.287Z,6.87
2018-12-17T19:20:59.734Z,5.03
2018-12-17T19:23:27.341Z,5.60
2018-12-17T19:25:54.805Z,5.17
2018-12-17T19:28:22.287Z,5.05
2018-12-17T19:30:49.741Z,5.22
2018-12-17T19:33:17.245Z,4.70
2018-12-17T19:35:44.757Z,5.20
2018-12-17T19:38:12.271Z,5.95
2018-12-17T19:40:39.720Z,5.78
2018-12-17T19:43:07.209Z,7.70
2018-12-17T19:45:34.666Z,6.70
2018-12-17T19:48:02.141Z,6.92
2018-12-17T19:50:29.606Z,8.65
2018-12-17T19:52:57.139Z,8.68
2018-12-17T19:55:24.595Z,7.53
2018-12-17T19:57:52.064Z,6.12
2018-12-17T20:00:19.713Z,7.35
2018-12-17T20:02:47.366Z,7.95
2018-12-17T20:05:15.109Z,9.13
2018-12-17T20:07:42.619Z,8.40
2018-12-17T20:10:12.318Z,10.40
2018-12-17T20:12:39.765Z,7.33
2018-12-17T20:15:07.382Z,6.37
2018-12-17T20:17:34.849Z,7.70
2018-12-17T20:20:02.522Z,8.00
2018-12-17T20:22:29.973Z,9.73
2018-12-17T20:24:57.469Z,7.07
2018-12-17T20:27:24.968Z,6.72
2018-12-17T20:29:52.536Z,6.90
2018-12-17T20:32:20.006Z,6.58
2018-12-17T20:34:47.607Z,6.97
2018-12-17T20:37:15.128Z,7.08
2018-12-17T20:39:42.571Z,6.80
2018-12-17T20:42:10.196Z,9.10
2018-12-17T20:44:37.759Z,7.30
2018-12-17T20:47:05.256Z,8.93
2018-12-17T20:49:32.764Z,7.00
2018-12-17T20:52:00.232Z,7.28
2018-12-17T20:54:27.711Z,9.13
2018-12-17T20:56:55.308Z,8.33
2018-12-17T20:59:22.811Z,8.10
2018-12-17T21:01:50.306Z,6.85
2018-12-17T21:04:17.756Z,10.78
2018-12-17T21:06:49.863Z,7.47
2018-12-17T21:09:14.731Z,7.30
2018-12-17T21:11:42.242Z,7.10
2018-12-17T21:14:10.415Z,6.80
2018-12-17T21:16:37.938Z,7.60
2018-12-17T21:19:05.451Z,7.60
2018-12-17T21:21:32.958Z,8.15
2018-12-17T21:24:00.453Z,7.05
2018-12-17T21:26:27.987Z,6.50
2018-12-17T21:28:55.934Z,7.20
2018-12-17T21:31:23.713Z,7.67
2018-12-17T21:33:51.181Z,9.13
2018-12-17T21:36:18.669Z,6.28
2018-12-17T21:38:46.117Z,6.92
2018-12-17T21:41:13.585Z,6.80
2018-12-17T21:43:41.105Z,6.80
2018-12-17T21:46:08.565Z,6.90
2018-12-17T21:48:36.055Z,6.90
2018-12-17T21:51:03.676Z,7.45
2018-12-17T21:53:31.147Z,6.55
2018-12-17T21:55:58.616Z,6.83
2018-12-17T21:58:26.362Z,6.65
2018-12-17T22:00:53.820Z,6.15
2018-12-17T22:03:21.329Z,8.55
2018-12-17T22:05:48.811Z,8.47
2018-12-17T22:08:17.095Z,8.88
2018-12-17T22:10:44.597Z,8.48
2018-12-17T22:13:12.109Z,7.10
2018-12-17T22:15:39.679Z,8.30
2018-12-17T22:18:07.239Z,6.85
2018-12-17T22:20:34.696Z,8.40
2018-12-17T22:23:02.185Z,7.62
2018-12-17T22:25:29.766Z,6.67
2018-12-17T22:27:57.253Z,6.10
2018-12-17T22:30:24.749Z,5.80
2018-12-17T22:32:52.255Z,6.30
2018-12-17T22:35:19.905Z,5.70
2018-12-17T22:37:47.348Z,5.97
2018-12-17T22:40:14.829Z,5.70
2018-12-17T22:42:42.316Z,6.08
2018-12-17T22:45:09.814Z,6.25
2018-12-17T22:47:37.248Z,6.60
2018-12-17T22:50:05.397Z,6.83
2018-12-17T22:52:32.880Z,8.10
2018-12-17T22:55:00.355Z,5.43
2018-12-17T22:57:27.864Z,6.17
2018-12-17T22:59:55.288Z,5.45
2018-12-17T23:02:22.767Z,4.87
2018-12-17T23:04:50.226Z,5.20
2018-12-17T23:07:17.783Z,5.20
2018-12-17T23:09:57.168Z,5.67
2018-12-17T23:12:36.698Z,5.65
2018-12-17T23:15:16.297Z,6.60
2018-12-17T23:17:43.387Z,5.33
2018-12-17T23:20:10.994Z,8.05
2018-12-17T23:22:38.616Z,5.62
2018-12-17T23:25:06.415Z,5.53
2018-12-17T23:27:34.204Z,5.58
2018-12-17T23:30:01.707Z,5.42
2018-12-17T23:32:33.183Z,5.03
2018-12-17T23:35:00.752Z,5.67
2018-12-17T23:37:28.260Z,5.30
2018-12-17T23:39:55.707Z,5.50
2018-12-17T23:42:23.318Z,6.50
2018-12-17T23:44:50.829Z,6.78
2018-12-17T23:47:18.265Z,5.28
2018-12-17T23:49:45.850Z,5.10
2018-12-17T23:52:13.375Z,6.62
2018-12-17T23:54:40.871Z,5.10
2018-12-17T23:57:08.313Z,5.40
2018-12-17T23:59:35.785Z,5.22
